createdAt,value
2022-10-02T00:00:50.428Z,2.40
2022-10-02T00:05:00.287Z,2.65
2022-10-02T00:08:54.269Z,2.73
2022-10-02T00:12:36.055Z,2.70
2022-10-02T00:16:42.370Z,2.83
2022-10-02T00:20:38.304Z,2.27
2022-10-02T00:24:38.282Z,2.20
2022-10-02T00:28:30.880Z,3.38
2022-10-02T00:32:25.259Z,2.53
2022-10-02T00:36:36.554Z,3.00
2022-10-02T00:40:50.294Z,2.50
2022-10-02T00:44:48.164Z,2.55
2022-10-02T00:48:58.294Z,3.00
2022-10-02T00:53:01.320Z,1.83
2022-10-02T00:56:49.641Z,2.47
2022-10-02T01:00:41.403Z,2.70
2022-10-02T01:04:40.290Z,2.20
2022-10-02T01:08:32.292Z,1.77
2022-10-02T01:12:10.679Z,2.70
2022-10-02T01:16:06.354Z,1.60
2022-10-02T01:19:58.329Z,2.43
2022-10-02T01:23:41.182Z,1.97
2022-10-02T01:27:38.023Z,1.30
2022-10-02T01:31:24.387Z,1.38
2022-10-02T01:35:16.310Z,1.77
2022-10-02T01:38:55.586Z,1.58
2022-10-02T01:42:47.311Z,1.70
2022-10-02T01:46:41.337Z,1.40
2022-10-02T01:50:32.472Z,0.60
2022-10-02T01:54:55.323Z,0.60
2022-10-02T01:58:47.348Z,0.80
2022-10-02T02:02:34.511Z,1.00
2022-10-02T02:06:40.360Z,0.77
2022-10-02T02:10:32.360Z,0.50
2022-10-02T02:14:39.324Z,1.15
2022-10-02T02:19:00.339Z,0.80
2022-10-02T02:22:55.305Z,1.05
2022-10-02T02:26:42.335Z,0.65
2022-10-02T02:30:38.360Z,1.00
2022-10-02T02:34:21.441Z,0.60
2022-10-02T02:38:24.356Z,0.60
2022-10-02T02:42:17.832Z,0.95
2022-10-02T02:46:19.345Z,0.60
2022-10-02T02:50:24.416Z,1.02
2022-10-02T02:54:19.346Z,0.82
2022-10-02T02:58:22.414Z,0.60
2022-10-02T03:02:08.395Z,1.67
2022-10-02T03:06:10.462Z,0.75
2022-10-02T03:10:33.352Z,0.68
2022-10-02T03:14:56.563Z,0.87
2022-10-02T03:18:56.587Z,0.80
2022-10-02T03:22:53.380Z,1.00
2022-10-02T03:26:58.358Z,0.80
2022-10-02T03:30:38.427Z,0.40
2022-10-02T03:34:30.433Z,0.73
2022-10-02T03:38:19.393Z,1.10
2022-10-02T03:42:11.451Z,0.80
2022-10-02T03:45:56.409Z,0.60
2022-10-02T03:49:41.501Z,0.65
2022-10-02T03:53:36.379Z,0.65
2022-10-02T03:57:23.201Z,0.43
2022-10-02T04:01:25.432Z,0.52
2022-10-02T04:05:47.408Z,0.95
2022-10-02T04:09:52.431Z,0.70
2022-10-02T04:13:41.459Z,0.80
2022-10-02T04:17:43.382Z,1.17
2022-10-02T04:21:36.452Z,1.13
2022-10-02T04:25:42.412Z,0.90
2022-10-02T04:29:25.814Z,0.80
2022-10-02T04:33:29.432Z,0.55
2022-10-02T04:37:24.383Z,0.80
2022-10-02T04:41:21.469Z,0.90
2022-10-02T04:45:22.482Z,0.60
2022-10-02T04:49:16.385Z,0.95
2022-10-02T04:53:19.440Z,0.75
2022-10-02T04:57:04.452Z,0.97
2022-10-02T05:01:03.530Z,0.65
2022-10-02T05:05:36.399Z,1.35
2022-10-02T05:09:37.423Z,1.60
2022-10-02T05:13:38.545Z,1.20
2022-10-02T05:17:35.406Z,0.90
2022-10-02T05:21:48.427Z,0.70
2022-10-02T05:26:12.102Z,1.13
2022-10-02T05:30:09.402Z,1.10
2022-10-02T05:33:59.417Z,1.38
2022-10-02T05:38:16.393Z,0.85
2022-10-02T05:42:16.481Z,1.10
2022-10-02T05:46:12.437Z,0.90
2022-10-02T05:50:11.495Z,1.13
2022-10-02T05:54:10.453Z,1.45
2022-10-02T05:58:16.554Z,1.30
2022-10-02T06:02:25.586Z,0.95
2022-10-02T06:06:24.462Z,0.90
2022-10-02T06:10:24.494Z,1.27
2022-10-02T06:14:06.037Z,1.20
2022-10-02T06:18:02.443Z,1.08
2022-10-02T06:22:04.437Z,0.77
2022-10-02T06:26:02.454Z,0.90
2022-10-02T06:29:50.487Z,1.90
2022-10-02T06:33:42.449Z,1.40
2022-10-02T06:37:41.524Z,0.90
2022-10-02T06:42:05.481Z,1.20
2022-10-02T06:46:00.705Z,1.20
2022-10-02T06:49:59.463Z,1.08
2022-10-02T06:54:05.442Z,1.30
2022-10-02T06:58:19.510Z,1.07
2022-10-02T07:02:09.476Z,2.07
2022-10-02T07:06:04.466Z,1.40
2022-10-02T07:10:13.478Z,1.38
2022-10-02T07:14:30.310Z,1.67
2022-10-02T07:18:26.542Z,1.20
2022-10-02T07:22:50.265Z,1.55
2022-10-02T07:27:00.515Z,2.22
2022-10-02T07:31:11.574Z,1.77
2022-10-02T07:35:00.862Z,1.33
2022-10-02T07:39:24.464Z,1.63
2022-10-02T07:43:42.462Z,1.38
2022-10-02T07:48:12.461Z,1.47
2022-10-02T07:52:12.721Z,1.37
2022-10-02T07:56:09.474Z,1.08
2022-10-02T07:59:57.478Z,2.00
2022-10-02T08:03:49.592Z,1.10
2022-10-02T08:07:35.572Z,1.33
2022-10-02T08:11:36.471Z,1.70
2022-10-02T08:15:36.498Z,0.95
2022-10-02T08:19:31.493Z,1.70
2022-10-02T08:23:44.506Z,1.43
2022-10-02T08:28:11.549Z,1.60
2022-10-02T08:31:56.585Z,1.27
2022-10-02T08:36:07.588Z,1.43
2022-10-02T08:40:29.517Z,1.10
2022-10-02T08:44:45.503Z,0.95
2022-10-02T08:49:01.559Z,1.13
2022-10-02T08:53:26.548Z,1.00
2022-10-02T08:57:32.489Z,1.33
2022-10-02T09:01:41.544Z,1.92
2022-10-02T09:06:10.506Z,1.70
2022-10-02T09:10:40.502Z,1.00
2022-10-02T09:14:44.977Z,2.00
2022-10-02T09:19:14.517Z,1.58
2022-10-02T09:23:17.522Z,2.17
2022-10-02T09:27:31.544Z,1.17
2022-10-02T09:31:40.266Z,1.57
2022-10-02T09:35:47.522Z,1.40
2022-10-02T09:39:57.658Z,0.77
2022-10-02T09:44:07.631Z,0.97
2022-10-02T09:48:25.541Z,0.77
2022-10-02T09:52:22.580Z,1.15
2022-10-02T09:56:40.564Z,1.05
2022-10-02T10:01:03.577Z,0.80
2022-10-02T10:05:05.937Z,0.90
2022-10-02T10:09:07.547Z,0.63
2022-10-02T10:13:22.302Z,0.88
2022-10-02T10:17:25.522Z,0.68
2022-10-02T10:21:38.799Z,0.70
2022-10-02T10:25:39.537Z,1.02
2022-10-02T10:29:39.962Z,1.10
2022-10-02T10:34:11.543Z,1.35
2022-10-02T10:38:32.563Z,0.60
2022-10-02T10:42:27.531Z,0.75
2022-10-02T10:46:29.342Z,1.10
2022-10-02T10:50:42.541Z,0.77
2022-10-02T10:54:49.595Z,0.83
2022-10-02T10:59:09.574Z,0.52
2022-10-02T11:02:56.650Z,1.13
2022-10-02T11:07:20.573Z,0.93
2022-10-02T11:11:27.610Z,1.03
2022-10-02T11:15:29.541Z,0.85
2022-10-02T11:19:36.816Z,0.70
2022-10-02T11:23:53.583Z,0.70
2022-10-02T11:28:08.616Z,0.70
2022-10-02T11:32:03.666Z,0.68
2022-10-02T11:35:53.655Z,0.82
2022-10-02T11:39:57.558Z,0.70
2022-10-02T11:44:09.619Z,0.70
2022-10-02T11:48:25.564Z,0.67
2022-10-02T11:52:12.979Z,1.60
2022-10-02T11:56:35.605Z,0.80
2022-10-02T12:00:39.598Z,1.15
2022-10-02T12:04:59.034Z,0.83
2022-10-02T12:09:17.639Z,0.90
2022-10-02T12:13:29.905Z,0.95
2022-10-02T12:17:35.655Z,0.88
2022-10-02T12:21:52.580Z,0.80
2022-10-02T12:26:08.625Z,0.97
2022-10-02T12:30:12.658Z,1.05
2022-10-02T12:34:15.771Z,1.17
2022-10-02T12:38:26.600Z,0.88
2022-10-02T12:42:41.017Z,1.10
2022-10-02T12:46:42.625Z,0.80
2022-10-02T12:50:51.665Z,1.00
2022-10-02T12:55:02.653Z,0.63
2022-10-02T12:59:03.319Z,0.88
2022-10-02T13:03:01.801Z,0.80
2022-10-02T13:07:17.695Z,0.95
2022-10-02T13:11:15.747Z,0.95
2022-10-02T13:15:29.634Z,0.50
2022-10-02T13:19:27.696Z,0.60
2022-10-02T13:23:44.631Z,0.70
2022-10-02T13:27:49.784Z,0.60
2022-10-02T13:31:59.660Z,0.82
2022-10-02T13:36:17.626Z,0.60
2022-10-02T13:40:30.710Z,0.73
2022-10-02T13:44:50.690Z,0.68
2022-10-02T13:49:01.649Z,0.30
2022-10-02T13:53:05.667Z,0.40
2022-10-02T13:57:05.661Z,0.40
2022-10-02T14:01:08.923Z,0.80
2022-10-02T14:05:03.716Z,0.40
2022-10-02T14:09:23.644Z,0.33
2022-10-02T14:13:22.687Z,0.50
2022-10-02T14:17:27.737Z,0.70
2022-10-02T14:21:29.664Z,1.10
2022-10-02T14:25:19.640Z,0.80
2022-10-02T14:30:00.660Z,0.90
2022-10-02T14:34:26.655Z,1.10
2022-10-02T14:39:10.738Z,0.80
2022-10-02T14:43:15.193Z,0.80
2022-10-02T14:47:18.671Z,1.00
2022-10-02T14:51:42.660Z,0.90
2022-10-02T14:55:51.696Z,0.60
2022-10-02T14:59:51.694Z,0.50
2022-10-02T15:03:56.793Z,0.60
2022-10-02T15:07:55.740Z,0.47
2022-10-02T15:12:21.745Z,0.28
2022-10-02T15:16:50.677Z,0.40
2022-10-02T15:20:39.704Z,0.33
2022-10-02T15:24:50.895Z,0.50
2022-10-02T15:29:05.779Z,0.73
2022-10-02T15:33:11.693Z,0.52
2022-10-02T15:37:13.779Z,0.40
2022-10-02T15:41:08.685Z,0.35
2022-10-02T15:45:19.162Z,0.40
2022-10-02T15:49:44.689Z,0.43
2022-10-02T15:53:41.697Z,0.60
2022-10-02T15:57:42.829Z,0.80
2022-10-02T16:01:44.289Z,0.47
2022-10-02T16:05:36.714Z,0.50
2022-10-02T16:09:53.629Z,0.40
2022-10-02T16:14:14.717Z,0.50
2022-10-02T16:18:12.742Z,0.70
2022-10-02T16:22:07.705Z,0.53
2022-10-02T16:26:45.711Z,0.50
2022-10-02T16:30:39.749Z,0.88
2022-10-02T16:34:54.712Z,0.40
2022-10-02T16:38:59.732Z,0.60
2022-10-02T16:42:52.224Z,0.80
2022-10-02T16:47:21.751Z,0.40
2022-10-02T16:51:34.731Z,0.50
2022-10-02T16:55:55.753Z,0.53
2022-10-02T16:59:57.745Z,0.40
2022-10-02T17:04:10.915Z,0.70
2022-10-02T17:08:01.728Z,1.05
2022-10-02T17:12:14.804Z,0.93
2022-10-02T17:16:18.848Z,1.10
2022-10-02T17:20:08.875Z,4.88
2022-10-02T17:24:08.735Z,1.40
2022-10-02T17:28:05.831Z,0.53
2022-10-02T17:31:52.384Z,0.60
2022-10-02T17:36:08.761Z,0.85
2022-10-02T17:40:25.737Z,0.90
2022-10-02T17:44:25.229Z,1.57
2022-10-02T17:48:45.896Z,1.70
2022-10-02T17:52:48.854Z,0.82
2022-10-02T17:56:58.769Z,1.42
2022-10-02T18:00:42.878Z,0.93
2022-10-02T18:04:52.743Z,0.90
2022-10-02T18:09:00.773Z,0.68
2022-10-02T18:13:17.806Z,1.17
2022-10-02T18:17:18.766Z,0.97
2022-10-02T18:21:28.793Z,0.40
2022-10-02T18:25:41.788Z,0.80
2022-10-02T18:30:05.992Z,1.00
2022-10-02T18:34:07.071Z,0.40
2022-10-02T18:38:05.779Z,0.40
2022-10-02T18:42:19.773Z,1.40
2022-10-02T18:46:13.810Z,1.13
2022-10-02T18:50:36.767Z,1.20
2022-10-02T18:54:51.783Z,1.40
2022-10-02T18:59:08.839Z,2.13
2022-10-02T19:03:35.765Z,1.33
2022-10-02T19:07:29.863Z,0.90
2022-10-02T19:11:25.793Z,1.10
2022-10-02T19:15:34.786Z,1.38
2022-10-02T19:19:21.697Z,1.10
2022-10-02T19:23:14.916Z,1.20
2022-10-02T19:27:05.797Z,0.80
2022-10-02T19:31:10.805Z,1.13
2022-10-02T19:34:57.306Z,1.10
2022-10-02T19:38:52.849Z,0.83
2022-10-02T19:42:52.824Z,1.50
2022-10-02T19:46:52.914Z,1.48
2022-10-02T19:50:53.802Z,1.40
2022-10-02T19:54:52.800Z,1.83
2022-10-02T19:58:54.824Z,2.00
2022-10-02T20:02:48.810Z,2.20
2022-10-02T20:06:53.820Z,1.60
2022-10-02T20:10:53.821Z,2.10
2022-10-02T20:14:54.859Z,1.63
2022-10-02T20:18:46.816Z,2.17
2022-10-02T20:22:58.811Z,1.85
2022-10-02T20:26:39.811Z,1.67
2022-10-02T20:30:34.843Z,1.35
2022-10-02T20:34:30.824Z,0.95
2022-10-02T20:38:39.833Z,1.40
2022-10-02T20:42:25.275Z,1.00
2022-10-02T20:46:48.866Z,1.45
2022-10-02T20:50:39.811Z,1.10
2022-10-02T20:54:53.815Z,0.77
2022-10-02T20:59:02.248Z,0.60
2022-10-02T21:03:17.898Z,0.77
2022-10-02T21:07:17.818Z,0.57
2022-10-02T21:11:41.828Z,0.50
2022-10-02T21:15:46.130Z,0.52
2022-10-02T21:19:58.880Z,0.40
2022-10-02T21:24:07.847Z,0.40
2022-10-02T21:28:08.928Z,0.40
2022-10-02T21:32:27.866Z,0.40
2022-10-02T21:36:22.868Z,0.50
2022-10-02T21:40:58.841Z,0.70
2022-10-02T21:45:16.868Z,0.57
2022-10-02T21:49:43.905Z,0.45
2022-10-02T21:54:24.840Z,0.63
2022-10-02T21:58:32.948Z,0.50
2022-10-02T22:02:40.865Z,0.57
2022-10-02T22:06:56.852Z,0.40
2022-10-02T22:11:00.891Z,0.75
2022-10-02T22:15:10.866Z,0.77
2022-10-02T22:18:58.932Z,0.50
2022-10-02T22:23:05.899Z,0.50
2022-10-02T22:27:41.895Z,0.68
2022-10-02T22:32:26.867Z,0.57
2022-10-02T22:36:36.461Z,0.50
2022-10-02T22:40:34.855Z,0.70
2022-10-02T22:44:36.849Z,0.43
2022-10-02T22:48:35.902Z,0.50
2022-10-02T22:52:42.301Z,0.70
2022-10-02T22:56:42.863Z,0.82
2022-10-02T23:00:38.876Z,0.93
2022-10-02T23:04:51.898Z,1.20
2022-10-02T23:08:46.969Z,1.20
2022-10-02T23:12:45.875Z,1.00
2022-10-02T23:16:36.983Z,0.87
2022-10-02T23:20:41.890Z,0.93
2022-10-02T23:24:31.947Z,0.95
2022-10-02T23:28:54.023Z,0.95
2022-10-02T23:32:57.906Z,0.60
2022-10-02T23:37:22.918Z,0.70
2022-10-02T23:41:46.933Z,1.08
2022-10-02T23:46:12.965Z,0.68
2022-10-02T23:50:05.905Z,1.17
2022-10-02T23:54:07.913Z,0.65
2022-10-02T23:58:44.976Z,0.60
